createdAt,value
2018-12-08T00:01:26.340Z,48.00
2018-12-08T00:03:53.911Z,47.80
2018-12-08T00:06:21.443Z,46.90
2018-12-08T00:11:16.505Z,46.70
2018-12-08T00:16:11.949Z,45.80
2018-12-08T00:21:07.121Z,45.80
2018-12-08T00:28:30.686Z,45.90
2018-12-08T00:36:00.005Z,46.60
2018-12-08T00:40:55.344Z,47.10
2018-12-08T00:53:16.626Z,47.20
2018-12-08T00:58:11.782Z,47.10
2018-12-08T01:00:39.319Z,47.10
2018-12-08T01:13:00.460Z,46.80
2018-12-08T01:17:55.464Z,46.70
2018-12-08T01:25:17.957Z,46.70
2018-12-08T01:27:45.652Z,46.70
2018-12-08T01:35:08.115Z,46.80
2018-12-08T01:40:03.415Z,46.90
2018-12-08T01:42:31.074Z,46.90
2018-12-08T01:47:26.053Z,46.80
2018-12-08T01:52:23.162Z,46.60
2018-12-08T01:57:18.311Z,46.70
2018-12-08T01:59:45.811Z,46.70
2018-12-08T02:04:40.885Z,46.70
2018-12-08T02:07:08.469Z,46.80
2018-12-08T02:12:03.771Z,47.20
2018-12-08T02:14:31.342Z,47.40
2018-12-08T02:16:58.922Z,47.60
2018-12-08T02:19:26.511Z,47.70
2018-12-08T02:24:21.639Z,47.50
2018-12-08T02:26:49.227Z,47.60
2018-12-08T02:29:16.817Z,47.10
2018-12-08T02:31:44.393Z,46.80
2018-12-08T02:34:14.589Z,46.60
2018-12-08T02:36:42.097Z,46.40
2018-12-08T02:46:32.008Z,46.00
2018-12-08T02:51:27.209Z,46.20
2018-12-08T02:53:54.716Z,46.30
2018-12-08T02:56:22.324Z,46.60
2018-12-08T02:58:49.903Z,46.60
2018-12-08T03:01:17.463Z,46.50
2018-12-08T03:03:45.000Z,46.60
2018-12-08T03:06:12.553Z,46.50
2018-12-08T03:08:40.121Z,46.60
2018-12-08T03:13:35.165Z,46.60
2018-12-08T03:16:02.688Z,46.50
2018-12-08T03:18:30.243Z,46.40
2018-12-08T03:20:57.779Z,46.30
2018-12-08T03:25:52.982Z,46.50
2018-12-08T03:28:20.472Z,46.30
2018-12-08T03:30:48.078Z,46.20
2018-12-08T03:33:15.590Z,46.20
2018-12-08T03:35:43.098Z,46.30
2018-12-08T03:38:10.608Z,46.40
2018-12-08T03:51:03.971Z,46.50
2018-12-08T03:53:31.520Z,46.60
2018-12-08T04:07:43.699Z,46.60
2018-12-08T04:10:27.608Z,46.80
2018-12-08T04:20:46.029Z,47.10
2018-12-08T04:23:26.405Z,47.20
2018-12-08T04:25:53.938Z,47.20
2018-12-08T04:28:36.449Z,47.00
2018-12-08T04:31:04.044Z,46.80
2018-12-08T04:38:35.808Z,46.40
2018-12-08T04:41:03.365Z,46.50
2018-12-08T04:43:30.935Z,46.50
2018-12-08T04:46:16.976Z,46.30
2018-12-08T04:54:38.113Z,45.90
2018-12-08T04:57:09.032Z,46.00
2018-12-08T05:05:16.110Z,45.90
2018-12-08T05:07:47.722Z,46.00
2018-12-08T05:12:59.328Z,45.80
2018-12-08T05:24:07.046Z,45.60
2018-12-08T05:26:42.262Z,45.90
2018-12-08T05:42:37.156Z,45.50
2018-12-08T05:47:51.587Z,45.30
2018-12-08T05:55:46.052Z,45.10
2018-12-08T05:58:36.033Z,45.10
2018-12-08T06:16:52.737Z,44.80
2018-12-08T08:59:48.141Z,45.40
2018-12-08T09:04:43.146Z,45.20
2018-12-08T09:12:05.995Z,45.00
2018-12-08T09:14:33.593Z,44.80
2018-12-08T09:19:29.160Z,44.70
2018-12-08T09:21:57.511Z,44.20
2018-12-08T09:24:25.215Z,44.10
2018-12-08T09:45:18.225Z,43.00
2018-12-08T09:57:35.749Z,42.10
2018-12-08T10:00:04.161Z,41.80
2018-12-08T10:02:31.965Z,41.50
2018-12-08T10:04:59.792Z,41.30
2018-12-08T10:07:27.336Z,41.10
2018-12-08T10:14:50.032Z,40.50
2018-12-08T10:27:09.609Z,39.50
2018-12-08T10:32:05.113Z,39.20
2018-12-08T10:34:32.695Z,39.00
2018-12-08T10:41:57.615Z,39.30
2018-12-08T10:46:52.813Z,38.90
2018-12-08T10:49:20.470Z,39.20
2018-12-08T10:51:48.034Z,38.90
2018-12-08T10:56:42.998Z,39.40
2018-12-08T10:59:10.477Z,39.10
2018-12-08T11:01:43.558Z,39.90
2018-12-08T11:04:11.369Z,39.90
2018-12-08T11:09:12.936Z,40.00
2018-12-08T11:11:40.530Z,39.80
2018-12-08T11:14:07.990Z,39.80
2018-12-08T11:16:35.464Z,39.50
2018-12-08T11:19:03.060Z,39.40
2018-12-08T11:21:30.493Z,39.50
2018-12-08T11:23:57.959Z,39.20
2018-12-08T11:26:25.441Z,39.00
2018-12-08T11:28:52.919Z,38.70
2018-12-08T11:31:20.343Z,38.50
2018-12-08T11:33:47.824Z,38.40
2018-12-08T11:36:15.307Z,38.10
2018-12-08T11:38:42.757Z,38.10
2018-12-08T11:41:10.187Z,38.10
2018-12-08T11:43:38.047Z,38.10
2018-12-08T11:46:05.481Z,38.40
2018-12-08T11:48:32.923Z,38.60
2018-12-08T11:51:00.471Z,38.70
2018-12-08T11:53:27.881Z,38.60
2018-12-08T11:55:55.335Z,38.50
2018-12-08T11:58:22.759Z,38.20
2018-12-08T12:00:50.181Z,37.90
2018-12-08T12:03:17.629Z,37.80
2018-12-08T12:05:45.151Z,37.80
2018-12-08T12:08:12.686Z,37.90
2018-12-08T12:10:40.223Z,37.70
2018-12-08T12:13:07.714Z,37.70
2018-12-08T12:15:35.202Z,37.70
2018-12-08T12:18:02.669Z,37.70
2018-12-08T12:20:30.087Z,37.70
2018-12-08T12:22:57.630Z,37.60
2018-12-08T12:25:25.694Z,37.50
2018-12-08T12:27:53.339Z,37.60
2018-12-08T12:30:20.810Z,37.60
2018-12-08T12:32:48.238Z,37.50
2018-12-08T12:35:15.665Z,37.60
2018-12-08T12:37:43.077Z,37.60
2018-12-08T12:40:10.502Z,37.70
2018-12-08T12:42:37.941Z,37.70
2018-12-08T12:45:05.943Z,37.80
2018-12-08T12:47:34.939Z,37.90
2018-12-08T12:50:02.709Z,37.90
2018-12-08T12:52:30.201Z,38.00
2018-12-08T12:54:57.638Z,38.00
2018-12-08T12:57:25.070Z,38.00
2018-12-08T12:59:52.505Z,37.90
2018-12-08T13:02:19.933Z,38.20
2018-12-08T13:04:47.347Z,38.50
2018-12-08T13:07:14.900Z,38.60
2018-12-08T13:09:42.349Z,38.70
2018-12-08T13:12:10.237Z,38.80
2018-12-08T13:14:37.833Z,38.90
2018-12-08T13:17:05.396Z,39.00
2018-12-08T13:19:32.826Z,38.90
2018-12-08T13:22:00.319Z,38.90
2018-12-08T13:24:30.861Z,39.00
2018-12-08T13:26:58.586Z,39.10
2018-12-08T13:29:27.681Z,39.10
2018-12-08T13:31:55.261Z,39.10
2018-12-08T13:34:25.459Z,39.20
2018-12-08T13:36:53.044Z,39.20
2018-12-08T13:39:20.612Z,39.10
2018-12-08T13:41:48.163Z,39.00
2018-12-08T13:44:59.157Z,39.00
2018-12-08T13:47:26.638Z,39.00
2018-12-08T13:49:54.097Z,39.30
2018-12-08T13:52:21.558Z,39.30
2018-12-08T13:54:50.431Z,39.20
2018-12-08T13:57:17.865Z,39.20
2018-12-08T13:59:55.362Z,39.10
2018-12-08T14:02:22.903Z,39.10
2018-12-08T14:04:50.355Z,39.10
2018-12-08T14:07:17.901Z,39.20
2018-12-08T14:09:45.350Z,39.10
2018-12-08T14:12:12.895Z,39.00
2018-12-08T14:14:40.385Z,37.60
2018-12-08T14:17:07.925Z,39.00
2018-12-08T14:19:35.503Z,39.20
2018-12-08T14:22:03.062Z,39.10
2018-12-08T14:24:30.646Z,39.30
2018-12-08T14:26:58.115Z,39.50
2018-12-08T14:29:25.549Z,39.50
2018-12-08T14:31:53.329Z,39.60
2018-12-08T14:34:20.871Z,39.60
2018-12-08T14:36:48.333Z,39.80
2018-12-08T14:39:15.775Z,39.80
2018-12-08T14:41:43.215Z,39.90
2018-12-08T14:44:10.661Z,40.00
2018-12-08T14:46:38.121Z,40.10
2018-12-08T14:49:05.697Z,40.30
2018-12-08T14:51:33.208Z,40.30
2018-12-08T14:54:00.748Z,40.40
2018-12-08T14:56:28.355Z,40.50
2018-12-08T14:58:55.939Z,40.80
2018-12-08T15:01:23.397Z,40.80
2018-12-08T15:03:50.821Z,40.90
2018-12-08T15:06:18.284Z,41.10
2018-12-08T15:08:45.855Z,41.30
2018-12-08T15:11:13.329Z,41.60
2018-12-08T15:13:41.352Z,41.80
2018-12-08T15:16:08.969Z,40.30
2018-12-08T15:18:36.401Z,42.00
2018-12-08T15:21:03.979Z,42.00
2018-12-08T15:23:31.434Z,42.00
2018-12-08T15:25:58.912Z,42.00
2018-12-08T15:28:26.403Z,42.00
2018-12-08T15:30:54.615Z,42.20
2018-12-08T15:33:22.053Z,42.30
2018-12-08T15:35:49.559Z,42.30
2018-12-08T15:38:17.215Z,42.30
2018-12-08T15:40:44.752Z,42.40
2018-12-08T15:43:12.276Z,42.40
2018-12-08T15:45:39.731Z,42.20
2018-12-08T15:48:07.325Z,42.40
2018-12-08T15:50:34.928Z,42.50
2018-12-08T15:53:02.702Z,42.50
2018-12-08T15:55:30.206Z,42.60
2018-12-08T15:57:57.662Z,42.70
2018-12-08T16:00:25.304Z,43.60
2018-12-08T16:02:52.772Z,42.40
2018-12-08T16:05:20.237Z,42.90
2018-12-08T16:07:47.779Z,43.00
2018-12-08T16:10:15.245Z,43.20
2018-12-08T16:12:42.674Z,43.30
2018-12-08T16:15:10.285Z,44.00
2018-12-08T16:17:37.807Z,43.50
2018-12-08T16:20:08.886Z,43.60
2018-12-08T16:22:36.439Z,43.60
2018-12-08T16:25:04.393Z,43.60
2018-12-08T16:27:31.855Z,43.70
2018-12-08T16:29:59.301Z,43.70
2018-12-08T16:32:26.777Z,43.80
2018-12-08T16:34:54.247Z,43.90
2018-12-08T16:37:21.754Z,43.90
2018-12-08T16:39:49.286Z,44.00
2018-12-08T16:42:16.899Z,43.50
2018-12-08T16:44:44.484Z,44.10
2018-12-08T16:47:11.996Z,44.20
2018-12-08T16:49:39.480Z,44.20
2018-12-08T16:52:07.055Z,44.30
2018-12-08T16:54:34.662Z,45.00
2018-12-08T16:57:02.232Z,44.40
2018-12-08T16:59:29.721Z,44.50
2018-12-08T17:01:57.350Z,44.60
2018-12-08T17:04:24.804Z,44.60
2018-12-08T17:06:52.385Z,44.30
2018-12-08T17:09:19.867Z,44.70
2018-12-08T17:11:47.544Z,44.70
2018-12-08T17:14:15.192Z,44.50
2018-12-08T17:16:42.793Z,44.40
2018-12-08T17:19:10.370Z,44.80
2018-12-08T17:21:37.938Z,44.80
2018-12-08T17:24:06.103Z,44.90
2018-12-08T17:26:33.539Z,44.90
2018-12-08T17:29:01.023Z,45.10
2018-12-08T17:31:28.538Z,45.20
2018-12-08T17:33:55.979Z,44.70
2018-12-08T17:36:23.430Z,45.30
2018-12-08T17:38:50.917Z,45.40
2018-12-08T17:41:18.384Z,45.50
2018-12-08T17:43:45.830Z,44.90
2018-12-08T17:46:13.486Z,45.50
2018-12-08T17:48:40.912Z,45.50
2018-12-08T17:51:08.549Z,45.00
2018-12-08T17:53:36.060Z,45.70
2018-12-08T17:56:03.746Z,44.90
2018-12-08T17:58:32.448Z,45.10
2018-12-08T18:01:00.220Z,45.60
2018-12-08T18:03:27.711Z,45.50
2018-12-08T18:05:55.142Z,45.70
2018-12-08T18:08:22.680Z,45.70
2018-12-08T18:13:56.552Z,45.10
2018-12-08T18:16:23.997Z,45.10
2018-12-08T18:18:51.455Z,45.10
2018-12-08T18:26:14.069Z,45.00
2018-12-08T18:28:42.522Z,45.00
2018-12-08T18:31:09.997Z,45.10
2018-12-08T18:33:54.690Z,45.10
2018-12-08T18:36:24.196Z,44.90
2018-12-08T18:38:51.645Z,45.00
2018-12-08T18:41:19.173Z,45.00
2018-12-08T18:46:14.504Z,45.00
2018-12-08T18:51:09.411Z,44.90
2018-12-08T18:53:36.891Z,45.00
2018-12-08T18:56:04.479Z,44.90
2018-12-08T19:00:59.335Z,44.70
2018-12-08T19:03:26.887Z,44.70
2018-12-08T19:08:21.875Z,44.60
2018-12-08T19:10:49.375Z,44.60
2018-12-08T19:13:16.863Z,44.50
2018-12-08T19:18:11.729Z,44.50
2018-12-08T19:20:39.360Z,44.40
2018-12-08T19:23:06.877Z,44.40
2018-12-08T19:25:34.551Z,44.40
2018-12-08T19:28:02.351Z,44.40
2018-12-08T19:30:29.953Z,44.30
2018-12-08T19:32:57.427Z,44.30
2018-12-08T19:35:24.940Z,44.20
2018-12-08T19:37:52.716Z,44.10
2018-12-08T19:40:20.349Z,44.10
2018-12-08T19:42:47.875Z,44.10
2018-12-08T19:47:42.695Z,44.00
2018-12-08T19:53:04.853Z,43.80
2018-12-08T20:01:18.092Z,43.80
2018-12-08T20:03:45.693Z,43.90
2018-12-08T20:06:13.480Z,43.80
2018-12-08T20:11:08.723Z,43.80
2018-12-08T20:13:48.517Z,43.70
2018-12-08T20:16:16.566Z,43.70
2018-12-08T20:18:45.587Z,43.70
2018-12-08T20:21:13.360Z,43.70
2018-12-08T20:26:09.484Z,43.70
2018-12-08T20:28:37.141Z,43.70
2018-12-08T20:31:05.639Z,43.80
2018-12-08T20:33:33.348Z,43.80
2018-12-08T20:36:17.231Z,43.70
2018-12-08T20:41:12.522Z,43.70
2018-12-08T20:43:40.149Z,43.70
2018-12-08T20:48:35.409Z,43.70
2018-12-08T20:51:08.888Z,43.70
2018-12-08T20:56:17.478Z,43.70
2018-12-08T21:04:09.038Z,43.70
2018-12-08T21:06:36.698Z,43.80
2018-12-08T21:11:32.480Z,43.90
2018-12-08T21:16:27.837Z,44.00
2018-12-08T21:18:55.498Z,44.00
2018-12-08T21:29:45.923Z,44.70
2018-12-08T21:40:24.629Z,44.50
2018-12-08T21:51:07.640Z,44.40
2018-12-08T21:53:35.305Z,44.50
2018-12-08T21:56:08.453Z,44.50
2018-12-08T21:58:36.088Z,44.60
2018-12-08T22:01:14.150Z,44.60
2018-12-08T22:09:06.865Z,44.70
2018-12-08T22:17:24.783Z,44.70
2018-12-08T22:25:19.874Z,45.00
2018-12-08T22:30:43.882Z,45.70
2018-12-08T22:40:53.640Z,46.30
2018-12-08T22:48:25.762Z,46.50
2018-12-08T22:56:24.183Z,46.70
2018-12-08T22:58:51.763Z,46.70
2018-12-08T23:03:47.422Z,46.70
2018-12-08T23:06:15.032Z,46.70
2018-12-08T23:08:42.920Z,46.70
2018-12-08T23:11:10.822Z,46.60
2018-12-08T23:13:38.725Z,46.80
2018-12-08T23:16:06.509Z,46.80
2018-12-08T23:21:02.023Z,46.90
2018-12-08T23:26:28.486Z,46.90
2018-12-08T23:28:56.244Z,47.10
2018-12-08T23:33:51.605Z,47.30
2018-12-08T23:36:19.137Z,47.30
2018-12-08T23:38:47.095Z,47.40
2018-12-08T23:41:14.851Z,47.50
2018-12-08T23:43:42.567Z,47.50
2018-12-08T23:46:10.282Z,47.70
2018-12-08T23:48:38.013Z,48.20
2018-12-08T23:56:00.744Z,48.90
